Time;durP1;ratioP1;P1;durP2;ratioP2;P2;SDS_P1;SDS_P2;PMS_P1;PMS_P2;Temp;Humidity;BMP_temperature;BMP_pressure;BME280_temperature;BME280_humidity;BME280_pressure;Samples;Min_cycle;Max_cycle;Signal;HPM_P1;HPM_P2
2021/10/16 00:00:06;;;;;;;;;14.50;12.25;;;;;19.86;100.00;101659.53;5071084;28;45380;-85
2021/10/16 00:02:31;;;;;;;;;16.50;13.25;;;;;19.83;100.00;101659.84;5075186;28;46394;-85
2021/10/16 00:04:57;;;;;;;;;12.75;10.00;;;;;19.83;100.00;101659.84;5072321;27;45477;-85
2021/10/16 00:07:22;;;;;;;;;14.00;11.50;;;;;19.72;100.00;101668.00;5066881;28;45425;-86
2021/10/16 00:09:48;;;;;;;;;15.25;13.00;;;;;19.64;100.00;101659.81;5074693;28;45452;-85
2021/10/16 00:12:13;;;;;;;;;15.25;13.25;;;;;19.66;100.00;101657.84;5069790;28;46704;-85
2021/10/16 00:14:39;;;;;;;;;14.00;12.00;;;;;19.63;100.00;101656.28;5071338;27;45841;-85
2021/10/16 00:17:04;;;;;;;;;13.75;13.75;;;;;19.62;100.00;101661.78;5071513;28;45363;-85
2021/10/16 00:19:30;;;;;;;;;12.00;11.50;;;;;19.57;100.00;101656.00;5068950;28;45768;-85
2021/10/16 00:21:55;;;;;;;;;10.00;10.00;;;;;19.60;100.00;101663.75;5078402;27;48108;-85
2021/10/16 00:24:21;;;;;;;;;12.50;9.75;;;;;19.60;100.00;101666.44;5084462;27;45268;-85
2021/10/16 00:26:46;;;;;;;;;14.50;12.00;;;;;19.58;100.00;101660.34;5071629;28;45501;-85
2021/10/16 00:29:11;;;;;;;;;16.00;13.75;;;;;19.59;100.00;101670.09;5070277;27;45334;-85
2021/10/16 00:31:37;;;;;;;;;17.50;12.75;;;;;19.57;100.00;101677.44;5076832;28;47095;-85
2021/10/16 00:34:02;;;;;;;;;11.50;10.25;;;;;19.53;100.00;101674.19;5079008;28;45491;-85
2021/10/16 00:36:28;;;;;;;;;17.00;13.00;;;;;19.47;100.00;101664.00;5071570;27;45480;-85
2021/10/16 00:38:53;;;;;;;;;11.50;11.50;;;;;19.49;100.00;101664.72;5068227;27;45488;-85
2021/10/16 00:41:18;;;;;;;;;15.00;14.00;;;;;19.43;100.00;101665.25;5073540;27;45363;-85
2021/10/16 00:43:44;;;;;;;;;12.50;11.75;;;;;19.43;100.00;101665.25;5080559;27;45259;-85
2021/10/16 00:46:09;;;;;;;;;20.50;13.75;;;;;19.39;100.00;101664.66;5064808;28;45667;-85
2021/10/16 00:48:34;;;;;;;;;15.25;11.50;;;;;19.17;100.00;101656.88;5070789;28;45646;-85
2021/10/16 00:51:00;;;;;;;;;13.00;11.00;;;;;19.17;100.00;101675.63;5069733;27;46171;-85
2021/10/16 00:53:26;;;;;;;;;11.00;9.75;;;;;19.11;100.00;101668.16;5074530;28;45403;-85
2021/10/16 00:55:52;;;;;;;;;19.25;14.00;;;;;19.09;100.00;101664.75;5069420;27;45429;-85
2021/10/16 00:58:18;;;;;;;;;13.75;13.00;;;;;19.07;100.00;101669.38;5073957;28;45456;-85
2021/10/16 01:00:43;;;;;;;;;18.00;13.50;;;;;19.07;100.00;101672.06;5074264;28;48307;-85
2021/10/16 01:03:09;;;;;;;;;16.75;12.75;;;;;19.07;100.00;101674.75;5073166;28;45421;-85
2021/10/16 01:05:35;;;;;;;;;18.00;13.75;;;;;19.05;100.00;101674.03;5068891;28;45292;-85
2021/10/16 01:08:08;;;;;;;;;13.75;13.00;;;;;19.12;100.00;101667.13;5062590;28;45481;-85
2021/10/16 01:10:33;;;;;;;;;19.75;17.00;;;;;19.04;100.00;101656.25;5078334;27;48097;-86
2021/10/16 01:12:58;;;;;;;;;19.25;15.00;;;;;18.96;100.00;101661.44;5073947;28;45339;-85
2021/10/16 01:15:25;;;;;;;;;15.00;13.25;;;;;18.91;100.00;101655.66;5061972;28;45317;-85
2021/10/16 01:17:51;;;;;;;;;14.75;13.25;;;;;18.90;100.00;101662.00;5063780;28;45975;-86
2021/10/16 01:20:19;;;;;;;;;16.00;11.00;;;;;18.91;100.00;101661.88;5071703;28;47996;-85
2021/10/16 01:22:48;;;;;;;;;20.00;14.00;;;;;18.85;100.00;101661.53;5076422;27;45697;-85
2021/10/16 01:25:19;;;;;;;;;15.50;11.50;;;;;18.75;100.00;101653.50;5077674;27;45398;-86
2021/10/16 01:27:45;;;;;;;;;12.75;11.00;;;;;18.83;100.00;101650.16;5067141;28;46334;-85
2021/10/16 01:30:14;;;;;;;;;15.75;11.50;;;;;18.78;100.00;101647.84;5074875;28;45394;-83
2021/10/16 01:32:40;;;;;;;;;15.25;11.50;;;;;18.81;100.00;101650.28;5074499;28;45369;-84
2021/10/16 01:35:07;;;;;;;;;14.00;10.00;;;;;18.88;100.00;101643.41;5066112;27;45281;-83
2021/10/16 01:37:33;;;;;;;;;10.75;10.00;;;;;18.82;100.00;101641.28;5063354;28;45472;-84
2021/10/16 01:39:59;;;;;;;;;12.75;10.25;;;;;18.86;100.00;101640.00;5075854;27;46869;-84
2021/10/16 01:42:24;;;;;;;;;14.75;12.00;;;;;18.82;100.00;101635.06;5078233;27;45399;-84
2021/10/16 01:44:50;;;;;;;;;13.25;9.00;;;;;18.78;100.00;101634.47;5069020;27;45523;-84
2021/10/16 01:47:15;;;;;;;;;14.00;11.25;;;;;18.78;100.00;101644.34;5072195;28;45398;-85
2021/10/16 01:49:40;;;;;;;;;16.75;10.50;;;;;18.73;100.00;101641.22;5064624;27;45371;-85
2021/10/16 01:52:06;;;;;;;;;13.75;13.75;;;;;18.75;100.00;101639.28;5078699;27;45427;-85
2021/10/16 01:54:32;;;;;;;;;15.25;11.75;;;;;18.76;100.00;101640.94;5067804;28;45606;-85
2021/10/16 01:56:57;;;;;;;;;17.00;14.00;;;;;18.76;100.00;101638.25;5092999;27;46133;-85
2021/10/16 01:59:25;;;;;;;;;14.50;11.00;;;;;18.69;100.00;101633.47;5062873;27;45758;-85
2021/10/16 02:01:52;;;;;;;;;16.00;12.75;;;;;18.71;100.00;101646.72;5063888;28;46545;-85
2021/10/16 02:04:18;;;;;;;;;11.50;10.75;;;;;18.64;100.00;101633.03;5078434;28;45475;-85
2021/10/16 02:06:43;;;;;;;;;11.00;10.00;;;;;18.59;100.00;101627.22;5074933;28;45519;-85
2021/10/16 02:09:09;;;;;;;;;11.75;10.50;;;;;18.54;100.00;101625.91;5065723;27;46274;-86
2021/10/16 02:11:35;;;;;;;;;14.00;9.75;;;;;18.47;100.00;101627.41;5065794;28;45389;-86
2021/10/16 02:14:03;;;;;;;;;8.75;8.50;;;;;18.44;100.00;101630.34;5073787;27;45392;-86
2021/10/16 02:16:29;;;;;;;;;13.00;12.75;;;;;18.49;100.00;101625.44;5071559;27;45464;-86
2021/10/16 02:18:55;;;;;;;;;11.50;11.50;;;;;18.46;100.00;101620.38;5065966;27;45345;-86
2021/10/16 02:21:21;;;;;;;;;15.25;10.00;;;;;18.49;100.00;101630.78;5068907;28;45401;-86
2021/10/16 02:23:47;;;;;;;;;11.00;10.00;;;;;18.35;100.00;101621.28;5069038;27;45438;-86
2021/10/16 02:26:12;;;;;;;;;14.75;11.75;;;;;18.40;100.00;101621.72;5074843;28;45272;-86
2021/10/16 02:28:38;;;;;;;;;12.25;10.00;;;;;18.32;100.00;101624.22;5071691;27;45729;-86
2021/10/16 02:31:03;;;;;;;;;15.50;13.75;;;;;18.32;100.00;101611.69;5070256;28;46074;-86
2021/10/16 02:33:28;;;;;;;;;10.00;9.00;;;;;18.24;100.00;101611.53;5070900;27;45361;-86
2021/10/16 02:35:54;;;;;;;;;15.00;11.75;;;;;18.26;100.00;101609.56;5075162;28;45446;-86
2021/10/16 02:38:19;;;;;;;;;15.25;13.00;;;;;18.30;100.00;101615.47;5074966;28;45756;-86
2021/10/16 02:40:45;;;;;;;;;13.75;10.75;;;;;18.34;100.00;101624.94;5070852;28;45416;-86
2021/10/16 02:43:10;;;;;;;;;13.50;10.75;;;;;18.24;100.00;101616.00;5075067;28;45468;-86
2021/10/16 02:45:36;;;;;;;;;17.75;16.25;;;;;18.26;100.00;101614.06;5067590;28;45409;-86
2021/10/16 02:48:01;;;;;;;;;8.50;8.00;;;;;18.22;100.00;101612.63;5069630;27;45442;-86
2021/10/16 02:50:26;;;;;;;;;11.25;11.25;;;;;18.21;100.00;101616.28;5064091;28;45324;-86
2021/10/16 02:52:52;;;;;;;;;10.50;8.00;;;;;18.14;100.00;101615.97;5059594;28;45369;-86
2021/10/16 02:55:17;;;;;;;;;11.50;9.00;;;;;18.15;100.00;101619.47;5074014;28;45327;-86
2021/10/16 02:57:44;;;;;;;;;10.50;10.25;;;;;18.15;100.00;101608.78;5075152;28;45537;-86
2021/10/16 03:00:10;;;;;;;;;12.50;8.25;;;;;18.04;100.00;101622.22;5077840;28;45303;-85
2021/10/16 03:02:35;;;;;;;;;13.75;9.25;;;;;18.08;100.00;101616.50;5068853;27;45513;-86
2021/10/16 03:05:01;;;;;;;;;13.75;8.50;;;;;18.08;100.00;101613.81;5082172;27;45465;-86
2021/10/16 03:07:26;;;;;;;;;12.75;10.00;;;;;18.09;100.00;101617.34;5081096;27;48537;-86
2021/10/16 03:09:52;;;;;;;;;8.25;8.25;;;;;18.07;100.00;101613.94;5071396;28;45391;-86
2021/10/16 03:12:17;;;;;;;;;11.75;10.50;;;;;18.06;100.00;101607.75;5077585;28;45398;-85
2021/10/16 03:14:43;;;;;;;;;11.00;9.00;;;;;18.06;100.00;101613.09;5080026;27;45458;-85
2021/10/16 03:17:08;;;;;;;;;11.00;8.00;;;;;18.04;100.00;101615.03;5082857;27;47185;-86
2021/10/16 03:19:33;;;;;;;;;12.50;8.50;;;;;18.02;100.00;101608.16;5071362;27;45407;-85
2021/10/16 03:21:59;;;;;;;;;11.00;8.50;;;;;18.02;100.00;101603.66;5066372;27;46042;-85
2021/10/16 03:24:25;;;;;;;;;11.50;9.00;;;;;18.03;100.00;101604.50;5094327;27;45311;-86
2021/10/16 03:26:50;;;;;;;;;9.75;9.25;;;;;18.05;100.00;101600.72;5074004;28;47059;-86
2021/10/16 03:29:15;;;;;;;;;9.25;8.50;;;;;18.05;100.00;101606.06;5079931;28;45493;-86
2021/10/16 03:31:41;;;;;;;;;11.25;11.00;;;;;18.10;100.00;101616.38;5077273;28;45454;-86
2021/10/16 03:34:06;;;;;;;;;9.25;8.50;;;;;18.04;100.00;101609.69;5072932;28;45396;-86
2021/10/16 03:36:32;;;;;;;;;8.75;8.75;;;;;18.09;100.00;101614.66;5080910;27;45496;-86
2021/10/16 03:38:57;;;;;;;;;8.00;8.00;;;;;18.04;100.00;101607.03;5071044;28;45445;-86
2021/10/16 03:41:23;;;;;;;;;10.25;8.00;;;;;18.04;100.00;101614.19;5076015;28;45394;-86
2021/10/16 03:43:49;;;;;;;;;13.25;7.00;;;;;18.06;100.00;101609.56;5074167;28;45255;-86
2021/10/16 03:46:15;;;;;;;;;9.50;8.00;;;;;17.99;100.00;101601.25;5089184;27;48192;-86
2021/10/16 03:48:41;;;;;;;;;12.75;9.50;;;;;18.05;100.00;101607.88;5083845;27;45290;-86
2021/10/16 03:51:06;;;;;;;;;14.00;7.00;;;;;17.99;100.00;101592.38;5068099;27;45299;-86
2021/10/16 03:53:32;;;;;;;;;11.00;8.50;;;;;18.02;100.00;101602.81;5080325;28;45387;-86
2021/10/16 03:55:57;;;;;;;;;8.00;8.00;;;;;18.04;100.00;101601.69;5078251;28;45484;-86
2021/10/16 03:58:22;;;;;;;;;12.25;9.00;;;;;18.01;100.00;101593.94;5081602;28;45398;-85
2021/10/16 04:00:48;;;;;;;;;10.50;8.75;;;;;18.09;100.00;101606.66;5092833;27;45279;-86
2021/10/16 04:03:15;;;;;;;;;9.00;8.25;;;;;18.13;100.00;101600.03;5094305;27;44816;-85
2021/10/16 04:05:40;;;;;;;;;9.00;7.75;;;;;18.07;100.00;101597.91;5085304;27;45311;-85
2021/10/16 04:08:08;;;;;;;;;9.25;6.00;;;;;18.11;100.00;101613.56;5084152;28;45413;-86
2021/10/16 04:10:34;;;;;;;;;8.75;8.50;;;;;18.12;100.00;101614.41;5084466;28;45225;-86
2021/10/16 04:12:59;;;;;;;;;18.50;13.00;;;;;18.10;100.00;101614.53;5091296;28;44670;-86
2021/10/16 04:15:25;;;;;;;;;18.00;13.75;;;;;18.08;100.00;101610.28;5091016;28;47156;-86
2021/10/16 04:17:50;;;;;;;;;18.00;14.25;;;;;18.06;100.00;101613.09;5083026;28;45337;-85
2021/10/16 04:20:16;;;;;;;;;16.75;15.25;;;;;18.01;100.00;101611.81;5075719;27;45244;-86
2021/10/16 04:22:41;;;;;;;;;16.25;14.75;;;;;17.94;100.00;101622.13;5067877;27;45505;-85
2021/10/16 04:25:07;;;;;;;;;18.00;15.25;;;;;17.89;100.00;101625.22;5070640;28;45430;-86
2021/10/16 04:27:32;;;;;;;;;14.75;13.00;;;;;17.86;100.00;101617.44;5081651;28;45254;-85
2021/10/16 04:29:58;;;;;;;;;14.25;12.25;;;;;17.79;100.00;101618.09;5074084;27;45513;-86
2021/10/16 04:32:23;;;;;;;;;13.00;12.25;;;;;17.78;100.00;101630.59;5072965;28;45605;-85
2021/10/16 04:34:48;;;;;;;;;14.50;12.75;;;;;17.77;100.00;101631.59;5069877;27;45996;-86
2021/10/16 04:37:15;;;;;;;;;15.50;12.50;;;;;17.78;100.00;101630.59;5065676;28;45523;-85
2021/10/16 04:39:42;;;;;;;;;18.50;13.25;;;;;17.68;100.00;101619.00;5073092;28;45406;-86
2021/10/16 04:42:11;;;;;;;;;13.75;12.00;;;;;17.72;100.00;101625.78;5070367;28;45554;-85
2021/10/16 04:44:37;;;;;;;;;16.00;13.75;;;;;17.67;100.00;101617.28;5066424;28;45693;-85
2021/10/16 04:47:02;;;;;;;;;17.00;12.50;;;;;17.73;100.00;101626.63;5077365;27;45509;-85
2021/10/16 04:49:28;;;;;;;;;13.00;9.00;;;;;17.78;100.00;101627.09;5065333;28;45499;-85
2021/10/16 04:51:54;;;;;;;;;13.25;9.25;;;;;17.75;100.00;101630.88;5064384;28;45351;-86
2021/10/16 04:54:19;;;;;;;;;14.25;11.75;;;;;17.80;100.00;101627.81;5073850;28;46099;-86
2021/10/16 04:56:45;;;;;;;;;15.00;10.25;;;;;17.78;100.00;101624.41;5079148;27;45412;-86
2021/10/16 04:59:10;;;;;;;;;13.00;10.50;;;;;17.84;100.00;101631.94;5078187;28;45538;-85
2021/10/16 05:01:35;;;;;;;;;12.25;8.50;;;;;17.90;100.00;101632.25;5079490;27;45322;-86
2021/10/16 05:04:01;;;;;;;;;11.75;9.00;;;;;17.87;100.00;101629.84;5074640;28;45569;-85
2021/10/16 05:06:31;;;;;;;;;17.00;10.50;;;;;17.94;100.00;101639.03;5080387;27;45726;-86
2021/10/16 05:08:56;;;;;;;;;12.50;7.75;;;;;18.01;100.00;101636.72;5079735;27;45420;-86
2021/10/16 05:11:21;;;;;;;;;11.50;9.25;;;;;17.89;100.00;101630.56;5078106;28;45774;-86
2021/10/16 05:13:47;;;;;;;;;10.50;8.00;;;;;17.93;100.00;101641.84;5071850;27;45504;-85
2021/10/16 05:16:12;;;;;;;;;12.00;10.75;;;;;18.01;100.00;101655.41;5077557;28;45338;-85
2021/10/16 05:18:37;;;;;;;;;10.50;8.00;;;;;18.01;100.00;101649.22;5072699;27;45214;-87
2021/10/16 05:21:04;;;;;;;;;9.75;8.75;;;;;17.98;100.00;101654.81;5071001;28;45722;-87
2021/10/16 05:23:30;;;;;;;;;9.75;8.50;;;;;17.95;100.00;101651.41;5078340;27;48441;-86
2021/10/16 05:25:55;;;;;;;;;10.00;10.00;;;;;17.94;100.00;101655.06;5070982;28;45475;-84
2021/10/16 05:28:21;;;;;;;;;14.50;9.50;;;;;17.91;100.00;101644.66;5069543;27;45363;-85
2021/10/16 05:30:46;;;;;;;;;12.75;10.00;;;;;17.89;100.00;101643.91;5076750;28;45244;-86
2021/10/16 05:33:12;;;;;;;;;14.75;9.50;;;;;17.91;100.00;101650.00;5080671;27;45370;-86
2021/10/16 05:35:43;;;;;;;;;12.75;9.00;;;;;17.85;100.00;101638.94;5070618;27;45417;-85
2021/10/16 05:38:08;;;;;;;;;15.75;10.00;;;;;17.84;100.00;101639.94;5067993;28;45330;-86
2021/10/16 05:40:34;;;;;;;;;11.75;9.75;;;;;17.77;100.00;101636.06;5076202;27;45487;-86
2021/10/16 05:42:59;;;;;;;;;14.00;10.50;;;;;17.79;100.00;101645.66;5077614;28;47309;-86
2021/10/16 05:45:25;;;;;;;;;14.75;11.00;;;;;17.82;100.00;101637.41;5066859;28;45466;-86
2021/10/16 05:47:50;;;;;;;;;12.75;8.25;;;;;17.80;100.00;101644.69;5074047;28;45468;-86
2021/10/16 05:50:16;;;;;;;;;12.75;12.75;;;;;17.83;100.00;101638.25;5083033;28;45496;-86
2021/10/16 05:52:41;;;;;;;;;16.75;10.75;;;;;17.84;100.00;101639.94;5078441;28;48294;-85
2021/10/16 05:55:07;;;;;;;;;14.50;12.25;;;;;17.80;100.00;101649.19;5078578;27;45444;-85
2021/10/16 05:57:33;;;;;;;;;15.50;11.25;;;;;17.82;100.00;101644.56;5078508;28;45558;-85
2021/10/16 05:59:58;;;;;;;;;15.75;11.75;;;;;17.84;100.00;101642.63;5080025;28;45971;-86
2021/10/16 06:02:24;;;;;;;;;9.50;8.75;;;;;17.83;100.00;101639.09;5074826;27;46519;-86
2021/10/16 06:04:49;;;;;;;;;11.00;8.00;;;;;17.88;100.00;101644.91;5079233;27;45716;-85
2021/10/16 06:07:15;;;;;;;;;10.75;10.50;;;;;17.89;100.00;101646.59;5079932;27;45397;-86
2021/10/16 06:09:41;;;;;;;;;14.00;9.75;;;;;17.90;100.00;101640.28;5078633;28;45770;-86
2021/10/16 06:12:06;;;;;;;;;13.50;10.00;;;;;17.91;100.00;101641.97;5073360;27;45307;-86
2021/10/16 06:14:32;;;;;;;;;9.50;9.50;;;;;17.91;100.00;101644.66;5073229;27;45416;-86
2021/10/16 06:16:57;;;;;;;;;12.50;10.00;;;;;17.90;100.00;101644.78;5079439;27;45352;-86
2021/10/16 06:19:23;;;;;;;;;13.00;8.00;;;;;17.87;100.00;101651.22;5079425;27;45317;-86
2021/10/16 06:21:48;;;;;;;;;10.25;9.25;;;;;17.87;100.00;101637.84;5077419;27;46240;-86
2021/10/16 06:24:13;;;;;;;;;12.25;10.00;;;;;17.97;100.00;101653.13;5079393;27;45449;-86
2021/10/16 06:26:39;;;;;;;;;12.25;10.00;;;;;17.95;100.00;101650.56;5078122;28;46084;-85
2021/10/16 06:29:04;;;;;;;;;13.00;9.00;;;;;17.93;100.00;101653.41;5079648;28;45369;-83
2021/10/16 06:31:30;;;;;;;;;15.50;13.50;;;;;18.01;100.00;101655.41;5077401;27;45464;-83
2021/10/16 06:33:55;;;;;;;;;15.25;12.25;;;;;18.02;100.00;101646.41;5074848;27;45566;-83
2021/10/16 06:36:20;;;;;;;;;11.25;9.00;;;;;18.14;100.00;101652.53;5079944;27;45373;-83
2021/10/16 06:38:46;;;;;;;;;15.00;11.00;;;;;18.19;100.00;101656.53;5079485;27;45299;-83
2021/10/16 06:41:11;;;;;;;;;11.75;10.00;;;;;18.23;100.00;101649.06;5072973;27;45368;-83
2021/10/16 06:43:37;;;;;;;;;10.25;9.00;;;;;18.26;100.00;101648.81;5067419;28;45567;-83
2021/10/16 06:46:02;;;;;;;;;14.00;11.00;;;;;18.31;100.00;101651.94;5087477;27;45725;-83
2021/10/16 06:48:27;;;;;;;;;16.50;9.75;;;;;18.33;100.00;101650.00;5079617;27;45443;-83
2021/10/16 06:50:53;;;;;;;;;15.75;9.50;;;;;18.39;100.00;101649.44;5080106;28;47320;-84
2021/10/16 06:53:18;;;;;;;;;13.50;11.00;;;;;18.43;100.00;101656.25;5079050;27;45416;-84
2021/10/16 06:55:43;;;;;;;;;10.75;10.00;;;;;18.47;100.00;101651.50;5075810;27;45213;-84
2021/10/16 06:58:09;;;;;;;;;16.25;12.00;;;;;18.52;100.00;101649.25;5072660;27;45231;-84
2021/10/16 07:00:34;;;;;;;;;12.75;12.25;;;;;18.49;100.00;101661.06;5064982;28;45592;-83
2021/10/16 07:03:01;;;;;;;;;12.00;11.00;;;;;18.58;100.00;101652.28;5070280;28;45908;-82
2021/10/16 07:05:27;;;;;;;;;14.00;12.00;;;;;18.58;100.00;101657.63;5076704;28;45389;-81
2021/10/16 07:07:52;;;;;;;;;15.25;8.25;;;;;18.57;100.00;101652.44;5064112;28;45349;-82
2021/10/16 07:10:18;;;;;;;;;11.25;9.75;;;;;18.60;100.00;101665.50;5067230;28;45310;-81
2021/10/16 07:12:43;;;;;;;;;11.00;8.50;;;;;18.71;100.00;101665.44;5075430;28;45501;-80
2021/10/16 07:15:09;;;;;;;;;14.00;10.25;;;;;18.81;100.00;101671.69;5072849;27;45319;-83
2021/10/16 07:17:34;;;;;;;;;11.50;10.25;;;;;18.91;100.00;101671.72;5070944;28;45367;-81
2021/10/16 07:20:00;;;;;;;;;9.75;8.50;;;;;18.95;100.00;101668.63;5077611;28;46065;-83
2021/10/16 07:22:25;;;;;;;;;9.75;8.50;;;;;19.06;100.00;101675.72;5073135;27;45433;-83
2021/10/16 07:24:50;;;;;;;;;15.75;11.25;;;;;19.08;100.00;101675.59;5067526;28;46069;-83
2021/10/16 07:27:16;;;;;;;;;17.75;13.25;;;;;19.05;100.00;101674.88;5068556;27;45444;-82
2021/10/16 07:29:42;;;;;;;;;11.00;8.75;;;;;19.20;100.00;101682.53;5067594;28;46756;-81
2021/10/16 07:32:08;;;;;;;;;9.00;8.00;;;;;19.24;100.00;101682.13;5077365;28;45644;-86
2021/10/16 07:34:34;;;;;;;;;14.00;9.50;;;;;19.33;100.00;101675.94;5071828;28;45457;-82
2021/10/16 07:36:59;;;;;;;;;12.50;10.00;;;;;19.51;100.00;101688.69;5067762;28;45389;-81
2021/10/16 07:39:25;;;;;;;;;12.00;11.00;;;;;19.56;100.00;101690.00;5067083;28;46111;-82
2021/10/16 07:41:50;;;;;;;;;12.75;7.50;;;;;19.72;100.00;101679.56;5077329;28;45265;-81
2021/10/16 07:44:16;;;;;;;;;10.00;9.00;;;;;19.81;100.00;101677.88;5063479;28;45445;-83
2021/10/16 07:46:43;;;;;;;;;9.75;9.25;;;;;20.05;100.00;101685.50;5066980;28;45228;-81
2021/10/16 07:49:10;;;;;;;;;10.25;10.00;;;;;20.12;100.00;101678.59;5070574;28;45493;-81
2021/10/16 07:51:35;;;;;;;;;9.00;8.50;;;;;20.26;100.00;101685.34;5067251;28;45664;-81
2021/10/16 07:54:01;;;;;;;;;10.50;7.00;;;;;20.36;100.00;101684.38;5077974;27;46514;-81
2021/10/16 07:56:26;;;;;;;;;9.75;9.00;;;;;20.40;100.00;101672.34;5067330;28;45509;-81
2021/10/16 07:58:52;;;;;;;;;14.50;12.00;;;;;20.71;100.00;101688.22;5068675;27;45800;-81
2021/10/16 08:01:17;;;;;;;;;13.00;10.00;;;;;20.98;100.00;101684.72;5061038;28;45475;-81
2021/10/16 08:03:43;;;;;;;;;11.75;11.00;;;;;21.98;100.00;101690.94;5062509;28;45583;-81
2021/10/16 08:06:09;;;;;;;;;14.50;11.50;;;;;22.88;100.00;101677.13;5063107;28;45485;-81
2021/10/16 08:08:34;;;;;;;;;12.00;11.50;;;;;23.50;100.00;101685.81;5069682;28;45469;-81
2021/10/16 08:11:00;;;;;;;;;14.00;10.50;;;;;24.12;100.00;101673.59;5069505;28;45418;-82
2021/10/16 08:13:28;;;;;;;;;10.50;8.00;;;;;24.94;99.58;101668.94;5063161;28;45493;-82
2021/10/16 08:15:54;;;;;;;;;10.50;9.25;;;;;25.37;97.09;101672.94;5067521;28;46036;-82
2021/10/16 08:18:19;;;;;;;;;12.75;10.00;;;;;26.11;90.74;101673.31;5065945;28;46528;-82
2021/10/16 08:20:44;;;;;;;;;8.50;8.50;;;;;26.41;88.83;101673.19;5067959;28;45291;-82
2021/10/16 08:23:10;;;;;;;;;10.50;9.25;;;;;27.18;88.40;101675.56;5063159;27;45368;-82
2021/10/16 08:25:36;;;;;;;;;13.25;8.50;;;;;27.96;79.14;101674.78;5064098;28;45549;-82
2021/10/16 08:28:12;;;;;;;;;15.25;11.00;;;;;28.88;82.18;101663.78;5069157;27;48131;-82
2021/10/16 08:30:41;;;;;;;;;12.25;10.50;;;;;29.86;76.53;101663.31;5076257;28;45710;-82
2021/10/16 08:33:06;;;;;;;;;12.75;9.25;;;;;30.55;72.98;101660.19;5070500;28;45625;-81
2021/10/16 08:35:32;;;;;;;;;9.25;7.00;;;;;31.06;63.55;101665.69;5079322;27;45585;-82
2021/10/16 08:37:57;;;;;;;;;7.25;7.00;;;;;31.43;63.95;101672.25;5084213;27;47386;-82
2021/10/16 08:40:25;;;;;;;;;10.00;7.50;;;;;31.46;55.55;101668.28;5079899;28;45271;-82
2021/10/16 08:42:50;;;;;;;;;9.50;6.25;;;;;31.41;53.27;101668.91;5095284;27;45417;-82
2021/10/16 08:45:16;;;;;;;;;8.00;8.00;;;;;31.67;56.77;101665.25;5067887;28;45299;-82
2021/10/16 08:47:44;;;;;;;;;9.00;9.00;;;;;32.29;56.68;101678.00;5070195;27;46544;-82
2021/10/16 08:50:11;;;;;;;;;10.75;6.75;;;;;32.92;56.07;101682.44;5083219;28;44829;-82
2021/10/16 08:52:37;;;;;;;;;11.50;9.00;;;;;33.24;53.68;101688.59;5077583;28;45543;-82
2021/10/16 08:55:04;;;;;;;;;8.25;7.50;;;;;33.63;52.57;101681.75;5066177;28;45400;-82
2021/10/16 08:57:35;;;;;;;;;8.00;7.50;;;;;33.97;50.46;101685.66;5065365;28;45456;-82
2021/10/16 09:00:35;;;;;;;;;7.75;7.75;;;;;34.42;49.44;101706.00;5066773;28;45303;-82
2021/10/16 09:03:24;;;;;;;;;8.00;6.50;;;;;34.71;47.79;101692.41;5063174;28;45489;-82
2021/10/16 09:06:13;;;;;;;;;8.75;7.75;;;;;34.76;46.01;101706.28;5063846;28;45161;-83
2021/10/16 09:08:43;;;;;;;;;8.75;6.25;;;;;34.89;44.60;101690.38;5077136;28;47208;-81
2021/10/16 09:11:12;;;;;;;;;14.75;10.00;;;;;35.14;43.79;101701.09;5064604;28;45291;-82
2021/10/16 09:13:45;;;;;;;;;8.50;8.25;;;;;35.61;42.64;101699.00;5079131;27;45413;-81
2021/10/16 09:16:27;;;;;;;;;11.25;6.75;;;;;35.61;41.10;101692.66;5068699;28;45302;-81
2021/10/16 09:19:02;;;;;;;;;7.75;6.25;;;;;35.49;38.99;101689.16;5073789;27;46554;-81
2021/10/16 09:21:29;;;;;;;;;8.75;6.75;;;;;35.64;39.31;101694.94;5069090;28;45492;-81
2021/10/16 09:24:04;;;;;;;;;8.75;8.75;;;;;35.61;39.23;101696.25;5073198;28;45416;-81
2021/10/16 09:26:31;;;;;;;;;10.00;9.00;;;;;35.60;37.48;101696.53;5075355;28;45481;-82
2021/10/16 09:28:58;;;;;;;;;9.25;7.25;;;;;35.38;36.33;101696.34;5079696;28;45376;-83
2021/10/16 09:31:41;;;;;;;;;11.00;8.75;;;;;35.26;36.76;101692.81;5080359;27;45446;-81
2021/10/16 09:34:07;;;;;;;;;8.75;8.50;;;;;35.01;37.72;101693.09;5065956;28;45311;-82
2021/10/16 09:36:34;;;;;;;;;8.25;8.25;;;;;34.77;37.10;101691.50;5080254;27;45560;-83
2021/10/16 09:39:01;;;;;;;;;9.50;7.25;;;;;34.21;36.86;101694.78;5078696;28;48052;-82
2021/10/16 09:41:30;;;;;;;;;10.25;8.75;;;;;33.75;37.87;101696.34;5080194;27;45335;-82
2021/10/16 09:43:56;;;;;;;;;9.00;9.00;;;;;33.38;38.08;101698.31;5078925;28;45435;-83
2021/10/16 09:46:22;;;;;;;;;10.50;9.00;;;;;33.18;38.92;101703.19;5072471;27;45788;-82
2021/10/16 09:48:49;;;;;;;;;14.00;12.25;;;;;32.74;39.71;101693.38;5076742;28;45440;-82
2021/10/16 09:51:15;;;;;;;;;15.50;11.50;;;;;32.36;41.52;101691.63;5081759;27;45445;-83
2021/10/16 09:53:43;;;;;;;;;16.50;15.00;;;;;32.19;42.02;101691.34;5083290;27;45346;-83
2021/10/16 09:56:11;;;;;;;;;14.50;14.00;;;;;31.71;40.43;101688.31;5079772;27;45561;-84
2021/10/16 09:58:38;;;;;;;;;11.75;10.25;;;;;30.93;41.71;101694.94;5080446;27;45918;-85
2021/10/16 10:01:04;;;;;;;;;9.00;9.00;;;;;30.41;42.31;101700.22;5065809;28;45440;-82
2021/10/16 10:03:32;;;;;;;;;10.25;8.50;;;;;30.11;43.51;101699.81;5080020;27;45794;-82
2021/10/16 10:05:58;;;;;;;;;6.00;6.00;;;;;29.89;42.75;101708.34;5072459;27;45526;-82
2021/10/16 10:08:24;;;;;;;;;10.25;7.75;;;;;29.56;45.05;101695.50;5079976;27;46132;-83
2021/10/16 10:10:51;;;;;;;;;8.00;7.00;;;;;29.44;44.34;101693.56;5079967;28;45450;-83
2021/10/16 10:13:17;;;;;;;;;9.00;7.25;;;;;29.13;44.54;101689.47;5079919;27;45287;-84
2021/10/16 10:15:48;;;;;;;;;9.75;8.75;;;;;28.94;45.09;101701.09;5079156;28;45317;-83
2021/10/16 10:20:59;;;;;;;;;8.00;7.00;;;;;28.95;46.26;101697.31;5062673;28;45420;-84
2021/10/16 10:23:26;;;;;;;;;11.00;7.00;;;;;28.63;47.01;101686.00;5060939;28;45490;-84
2021/10/16 10:26:25;;;;;;;;;7.25;7.25;;;;;28.68;47.18;101694.41;5062431;28;45287;-84
2021/10/16 10:28:54;;;;;;;;;5.50;5.00;;;;;28.64;47.43;101690.41;5086356;27;47552;-85
2021/10/16 10:31:45;;;;;;;;;7.25;6.50;;;;;28.56;47.12;101687.00;5070164;28;45518;-85
2021/10/16 10:34:16;;;;;;;;;8.25;7.00;;;;;28.48;47.24;101684.44;5076367;27;45483;-85
2021/10/16 10:37:00;;;;;;;;;6.50;5.00;;;;;28.55;46.76;101690.75;5079894;27;45718;-85
2021/10/16 10:39:34;;;;;;;;;8.00;7.00;;;;;28.62;49.15;101691.63;5064429;27;45295;-85
2021/10/16 10:42:09;;;;;;;;;4.00;4.00;;;;;28.64;51.18;101692.28;5059833;27;45401;-83
2021/10/16 10:44:38;;;;;;;;;7.50;6.25;;;;;28.75;48.47;101680.88;5061758;28;45353;-82
2021/10/16 10:47:26;;;;;;;;;6.00;6.00;;;;;28.85;47.90;101688.69;5064371;28;45622;-82
2021/10/16 10:49:53;;;;;;;;;7.00;7.00;;;;;28.91;47.93;101687.88;5066436;28;46237;-82
2021/10/16 10:52:21;;;;;;;;;11.50;8.75;;;;;28.97;47.75;101687.06;5087091;27;45366;-81
2021/10/16 10:54:59;;;;;;;;;7.75;6.75;;;;;28.85;47.07;101696.84;5074820;28;45249;-82
2021/10/16 10:57:48;;;;;;;;;5.25;3.50;;;;;28.74;46.31;101694.66;5070536;28;45398;-82
2021/10/16 11:00:16;;;;;;;;;6.75;6.75;;;;;28.79;47.24;101687.59;5065257;28;45349;-82
2021/10/16 11:02:42;;;;;;;;;7.50;7.50;;;;;28.86;46.88;101685.75;5070435;28;45402;-83
2021/10/16 11:05:35;;;;;;;;;3.75;3.50;;;;;28.95;46.78;101672.84;5079184;27;45382;-83
2021/10/16 11:08:04;;;;;;;;;6.25;4.75;;;;;29.05;45.26;101678.72;5079197;27;45390;-83
2021/10/16 11:10:30;;;;;;;;;3.00;3.00;;;;;29.30;43.85;101679.06;5078241;28;48037;-83